EKRKEKSB

Guest
Details From EKRK - Roskilde
To EKSB - Sonderborg
Flight Number -
Tags Generated
Created
Modified
Stats Distance 88 nm / 163 km
Max Altitude 0 ft / 0 m
Waypoints 2
Social Downloads 1
Likes 0
Share VATSIM

Download

Looking for another format? Having issues loading an existing format? Contact us
Advertisement - Login to hide

Notes

Generated

Route

EKRK EKSB

ID Type Via Altitude Latitude Longitude Leg Dist Tot Dist Heading (true) Name
O EKRK APT - 0 ft / 0 m 55.57840˚ 12.12385˚ - 0 nm - -
O EKSB APT - 0 ft / 0 m 54.96895˚ 9.78489˚ 87 nm 87 nm 246° / 244° -

Altitude Profile

Advertisement - Login to hide

EKRK

Details ICAO EKRK (RKE)
Name Copenhagen Roskilde INT
Region Denmark / Faroe Islands
Timezone Europe/Copenhagen (UTC+1.0)
Stats Elevation 146 ft / 45 m (AMSL)
Location 55.585296° 12.129176°
Runways 2
Magnetic Variation 3.549° E

METAR

EKRK 132250Z AUTO 19008KT 9999NDV FEW006/// BKN008/// OVC011/// 02/01 Q0985 R99/290095

Decode

TAF

Not found

Departure Runways

ID Width Length Bearing (true) Bearing (mag) Surface Threshold Offset Overrun Length
03 105 ft / 32 m 4,926 ft / 1,501 m 30.86° 27.31° Asphalt 0 ft / 0 m 0 ft / 0 m
11 105 ft / 32 m 5,908 ft / 1,801 m 116.31° 112.76° Asphalt 0 ft / 0 m 0 ft / 0 m
21 105 ft / 32 m 4,926 ft / 1,501 m 210.88° 207.33° Asphalt 0 ft / 0 m 0 ft / 0 m
29 105 ft / 32 m 5,908 ft / 1,801 m 296.33° 292.78° Asphalt 194 ft / 59 m 0 ft / 0 m

EKSB

Details ICAO EKSB (SGD)
Name Sonderborg
Region Denmark / Faroe Islands
Timezone Europe/Copenhagen (UTC+1.0)
Stats Elevation 24 ft / 7 m (AMSL)
Location 54.962829° 9.794023°
Runways 1
Magnetic Variation 2.738° E

METAR

EKSB 132250Z AUTO 18010KT 150V210 3800NDV BR OVC002/// 03/03 Q0982

Decode

TAF

Not found

Destination Runways

ID Width Length Bearing (true) Bearing (mag) Surface Threshold Offset Overrun Length
14 98 ft / 30 m 5,884 ft / 1,793 m 139.42° 136.68° Asphalt 0 ft / 0 m 0 ft / 0 m
32 98 ft / 30 m 5,884 ft / 1,793 m 319.43° 316.69° Asphalt 0 ft / 0 m 0 ft / 0 m

Approach Navaids

Runway Type Ident Frequency Range Bearing (true) Bearing (mag) Slope Elevation
32 Localiser CIM 111.15 MHz 18 nm / 33 km 319.41° 316.68° - 24 ft / 7 m (AMSL)
32 Glidescope CIM 111.15 MHz 10 nm / 19 km 319.42° 316.68° 3.00° 24 ft / 7 m (AMSL)
32 DME CIM 111.15 MHz 18 nm / 33 km - - - 24 ft / 7 m (AMSL)

Popular Alternatives